Time;durP1;ratioP1;P1;durP2;ratioP2;P2;SDS_P1;SDS_P2;PMS_P1;PMS_P2;Temp;Humidity;BMP_temperature;BMP_pressure;BME280_temperature;BME280_humidity;BME280_pressure;Samples;Min_cycle;Max_cycle;Signal;HPM_P1;HPM_P2
2021/03/03 00:02:17;;;;;;;;;;;;;;;;;;;;;
2021/03/03 00:05:09;;;;;;;57.78;37.75;;;;;;;;;;6249574;23;20596;-79
2021/03/03 00:07:49;;;;;;;49.42;40.35;;;;;;;;;;6251616;23;20160;-79
2021/03/03 00:10:15;;;;;;;57.05;40.20;;;;;;;;;;6250801;23;20150;-78
2021/03/03 00:12:44;;;;;;;52.03;37.42;;;;;;;;;;6224908;23;20537;-80
2021/03/03 00:22:14;;;;;;;;;;;;;;;;;;;;;
2021/03/03 00:28:52;;;;;;;49.90;37.38;;;;;;;;;;6158603;23;20672;-80
2021/03/03 00:31:55;;;;;;;47.13;37.83;;;;;;;;;;6161269;23;20182;-80
2021/03/03 00:34:42;;;;;;;46.30;37.13;;;;;;;;;;6273310;23;20153;-78
2021/03/03 00:37:29;;;;;;;61.42;41.90;;;;;;;;;;6237189;23;20173;-77
2021/03/03 00:40:29;;;;;;;51.67;36.13;;;;;;;;;;6267293;23;20185;-79
2021/03/03 00:43:34;;;;;;;;;;;;;;;;;;;;;
2021/03/03 00:46:19;;;;;;;48.20;36.88;;;;;;;;;;6176529;23;20614;-79
2021/03/03 00:49:09;;;;;;;;;;;;;;;;;;;;;
2021/03/03 00:51:45;;;;;;;47.55;37.53;;;;;;;;;;6237982;23;20312;-77
2021/03/03 00:55:14;;;;;;;;;;;;;;;;;;;;;
2021/03/03 01:02:19;;;;;;;;;;;;;;;;;;;;;
2021/03/03 01:08:38;;;;;;;38.05;32.58;;;;;;;;;;6089349;23;20167;-80
2021/03/03 01:11:04;;;;;;;51.65;38.60;;;;;;;;;;6053211;23;20154;-79
2021/03/03 01:13:37;;;;;;;54.67;42.53;;;;;;;;;;6046415;23;20174;-79
2021/03/03 01:16:04;;;;;;;49.50;37.85;;;;;;;;;;6045590;23;20193;-79
2021/03/03 01:18:30;;;;;;;48.55;37.33;;;;;;;;;;6046769;23;20190;-80
2021/03/03 01:20:57;;;;;;;44.95;36.22;;;;;;;;;;6047481;23;20226;-80
2021/03/03 01:23:23;;;;;;;47.20;36.95;;;;;;;;;;6047752;23;20210;-79
2021/03/03 01:25:49;;;;;;;45.08;33.75;;;;;;;;;;6052332;23;20239;-78
2021/03/03 01:28:15;;;;;;;53.40;33.47;;;;;;;;;;6075768;23;20241;-78
2021/03/03 01:30:41;;;;;;;41.22;35.03;;;;;;;;;;6049059;23;20181;-79
2021/03/03 01:33:07;;;;;;;43.10;34.10;;;;;;;;;;6071902;23;20663;-80
2021/03/03 01:35:33;;;;;;;36.90;31.27;;;;;;;;;;6069767;23;20424;-80
2021/03/03 01:37:59;;;;;;;38.13;30.73;;;;;;;;;;6070478;23;20180;-79
2021/03/03 01:40:25;;;;;;;41.03;33.75;;;;;;;;;;6071661;23;20794;-79
2021/03/03 01:42:55;;;;;;;46.00;35.42;;;;;;;;;;6200152;23;20220;-79
2021/03/03 01:45:21;;;;;;;51.00;31.45;;;;;;;;;;6248540;23;20156;-79
2021/03/03 01:47:47;;;;;;;58.75;32.08;;;;;;;;;;6252273;23;20230;-78
2021/03/03 01:50:13;;;;;;;44.35;29.83;;;;;;;;;;6252380;23;20215;-79
2021/03/03 01:52:41;;;;;;;46.63;32.38;;;;;;;;;;6256598;23;20168;-80
2021/03/03 01:55:08;;;;;;;41.53;30.92;;;;;;;;;;6256020;23;20146;-79
2021/03/03 01:57:34;;;;;;;38.25;30.42;;;;;;;;;;6256373;23;20138;-80
2021/03/03 02:00:00;;;;;;;45.78;34.22;;;;;;;;;;6231584;23;20149;-78
2021/03/03 02:02:26;;;;;;;37.72;29.20;;;;;;;;;;6257933;23;20229;-79
2021/03/03 02:04:53;;;;;;;46.90;30.80;;;;;;;;;;6260380;23;20146;-80
2021/03/03 02:07:29;;;;;;;46.17;34.50;;;;;;;;;;6232234;23;20142;-79
2021/03/03 02:10:05;;;;;;;45.05;31.40;;;;;;;;;;6254370;23;20176;-80
2021/03/03 02:12:37;;;;;;;45.00;33.67;;;;;;;;;;6226917;23;20167;-80
2021/03/03 02:15:04;;;;;;;33.67;29.30;;;;;;;;;;6250893;23;20142;-79
2021/03/03 02:17:31;;;;;;;37.15;29.65;;;;;;;;;;6222720;23;20162;-78
2021/03/03 02:20:01;;;;;;;38.25;28.63;;;;;;;;;;6221514;23;20146;-78
2021/03/03 02:22:30;;;;;;;38.70;29.67;;;;;;;;;;6246677;23;20146;-79
2021/03/03 02:25:14;;;;;;;40.70;29.90;;;;;;;;;;6249178;23;20172;-79
2021/03/03 02:27:41;;;;;;;34.67;30.02;;;;;;;;;;6247836;23;20172;-79
2021/03/03 02:30:07;;;;;;;36.83;27.08;;;;;;;;;;6248252;23;20153;-78
2021/03/03 02:32:33;;;;;;;34.90;28.40;;;;;;;;;;6251161;23;20138;-79
2021/03/03 02:34:59;;;;;;;38.03;28.17;;;;;;;;;;6263084;23;20169;-80
2021/03/03 02:37:26;;;;;;;45.63;28.38;;;;;;;;;;6240366;23;20150;-80
2021/03/03 02:39:52;;;;;;;39.03;27.48;;;;;;;;;;6242132;23;20182;-79
2021/03/03 02:42:19;;;;;;;46.53;34.50;;;;;;;;;;6272187;22;20155;-79
2021/03/03 02:44:46;;;;;;;43.40;31.77;;;;;;;;;;6247977;22;20145;-81
2021/03/03 02:47:13;;;;;;;47.65;33.70;;;;;;;;;;6247988;22;20152;-80
2021/03/03 02:49:40;;;;;;;38.28;29.17;;;;;;;;;;6262286;23;20133;-80
2021/03/03 02:52:06;;;;;;;40.42;29.98;;;;;;;;;;6257833;23;20141;-79
2021/03/03 02:54:32;;;;;;;40.90;29.10;;;;;;;;;;6234260;23;20192;-78
2021/03/03 02:56:58;;;;;;;47.15;30.95;;;;;;;;;;6238968;23;20165;-78
2021/03/03 02:59:45;;;;;;;36.83;26.85;;;;;;;;;;6264636;23;20169;-78
2021/03/03 03:02:13;;;;;;;41.60;29.08;;;;;;;;;;6253160;23;20181;-80
2021/03/03 03:04:42;;;;;;;38.85;29.60;;;;;;;;;;6252748;23;20256;-79
2021/03/03 03:07:10;;;;;;;38.00;27.60;;;;;;;;;;6251622;23;20589;-80
2021/03/03 03:09:37;;;;;;;32.38;27.58;;;;;;;;;;6253535;23;20205;-81
2021/03/03 03:12:04;;;;;;;35.88;28.33;;;;;;;;;;6251927;23;20142;-79
2021/03/03 03:14:30;;;;;;;42.17;27.60;;;;;;;;;;6252263;23;20216;-79
2021/03/03 03:16:57;;;;;;;35.03;25.90;;;;;;;;;;6253839;23;20165;-81
2021/03/03 03:19:25;;;;;;;37.58;26.67;;;;;;;;;;6226977;23;20205;-79
2021/03/03 03:21:52;;;;;;;47.42;27.55;;;;;;;;;;6226900;23;20173;-80
2021/03/03 03:24:21;;;;;;;35.63;26.30;;;;;;;;;;6253464;23;20249;-79
2021/03/03 03:26:48;;;;;;;39.53;28.52;;;;;;;;;;6252556;23;20177;-79
2021/03/03 03:29:15;;;;;;;40.30;30.40;;;;;;;;;;6225922;23;20146;-79
2021/03/03 03:31:41;;;;;;;37.92;27.08;;;;;;;;;;6253955;23;20660;-79
2021/03/03 03:34:08;;;;;;;36.95;26.58;;;;;;;;;;6253493;23;20166;-77
2021/03/03 03:36:36;;;;;;;35.55;25.48;;;;;;;;;;6255768;23;20143;-80
2021/03/03 03:39:04;;;;;;;35.00;27.23;;;;;;;;;;6253344;23;20481;-80
2021/03/03 03:41:32;;;;;;;44.38;27.80;;;;;;;;;;6254232;23;20153;-79
2021/03/03 03:43:59;;;;;;;38.90;26.85;;;;;;;;;;6255310;23;20169;-79
2021/03/03 03:46:25;;;;;;;40.58;26.85;;;;;;;;;;6255084;23;20138;-80
2021/03/03 03:48:51;;;;;;;34.83;26.38;;;;;;;;;;6227567;23;20165;-80
2021/03/03 03:51:17;;;;;;;36.83;25.25;;;;;;;;;;6253583;23;20480;-79
2021/03/03 03:53:43;;;;;;;39.40;26.63;;;;;;;;;;6253977;23;20189;-80
2021/03/03 03:56:10;;;;;;;37.35;27.55;;;;;;;;;;6255869;23;20177;-80
2021/03/03 03:58:37;;;;;;;40.15;27.70;;;;;;;;;;6254400;23;20181;-80
2021/03/03 04:01:03;;;;;;;40.90;28.83;;;;;;;;;;6258163;23;20150;-78
2021/03/03 04:03:31;;;;;;;31.98;25.92;;;;;;;;;;6231493;23;20271;-80
2021/03/03 04:05:57;;;;;;;29.13;25.15;;;;;;;;;;6263941;23;20141;-80
2021/03/03 04:08:23;;;;;;;34.25;25.20;;;;;;;;;;6241841;23;20150;-78
2021/03/03 04:10:49;;;;;;;43.17;30.33;;;;;;;;;;6268497;23;20142;-79
2021/03/03 04:13:15;;;;;;;36.17;25.73;;;;;;;;;;6266708;23;20229;-80
2021/03/03 04:15:42;;;;;;;41.30;28.77;;;;;;;;;;6265911;23;20158;-79
2021/03/03 04:18:08;;;;;;;41.70;29.50;;;;;;;;;;6239769;23;20510;-79
2021/03/03 04:20:34;;;;;;;38.95;27.05;;;;;;;;;;6270691;22;20142;-80
2021/03/03 04:23:00;;;;;;;32.58;25.17;;;;;;;;;;6274784;22;20170;-81
2021/03/03 04:25:26;;;;;;;35.08;27.75;;;;;;;;;;6274041;22;20146;-82
2021/03/03 04:27:52;;;;;;;32.22;26.17;;;;;;;;;;6265950;22;20562;-78
2021/03/03 04:30:19;;;;;;;35.80;27.35;;;;;;;;;;6250968;23;20221;-80
2021/03/03 04:32:45;;;;;;;43.25;27.92;;;;;;;;;;6260058;23;20178;-77
2021/03/03 04:35:11;;;;;;;34.15;26.33;;;;;;;;;;6242365;23;20186;-78
2021/03/03 04:37:38;;;;;;;33.08;27.20;;;;;;;;;;6262496;23;20138;-80
2021/03/03 04:40:08;;;;;;;42.50;29.25;;;;;;;;;;6268200;23;20161;-80
2021/03/03 04:42:34;;;;;;;35.92;28.50;;;;;;;;;;6264801;23;20157;-80
2021/03/03 04:45:01;;;;;;;32.75;26.60;;;;;;;;;;6257872;23;20162;-80
2021/03/03 04:47:27;;;;;;;42.53;29.80;;;;;;;;;;6264836;23;20149;-80
2021/03/03 04:49:53;;;;;;;44.10;27.43;;;;;;;;;;6257530;23;20146;-80
2021/03/03 04:52:19;;;;;;;36.08;27.23;;;;;;;;;;6230069;23;20372;-79
2021/03/03 04:54:45;;;;;;;39.65;29.45;;;;;;;;;;6269176;23;20153;-78
2021/03/03 04:57:11;;;;;;;37.95;26.75;;;;;;;;;;6266008;23;20194;-79
2021/03/03 04:59:37;;;;;;;40.78;27.30;;;;;;;;;;6267976;23;20174;-79
2021/03/03 05:02:03;;;;;;;42.85;27.25;;;;;;;;;;6268025;23;20142;-79
2021/03/03 05:04:29;;;;;;;36.33;27.70;;;;;;;;;;6269240;23;20165;-80
2021/03/03 05:06:55;;;;;;;39.43;25.67;;;;;;;;;;6265832;23;20361;-81
2021/03/03 05:09:21;;;;;;;41.80;30.77;;;;;;;;;;6228950;23;20389;-79
2021/03/03 05:11:47;;;;;;;39.95;28.20;;;;;;;;;;6250973;23;20169;-79
2021/03/03 05:14:13;;;;;;;39.33;27.83;;;;;;;;;;6250137;23;20177;-79
2021/03/03 05:16:39;;;;;;;34.15;26.10;;;;;;;;;;6251166;23;20161;-78
2021/03/03 05:19:05;;;;;;;37.40;28.13;;;;;;;;;;6225004;23;20523;-79
2021/03/03 05:21:31;;;;;;;37.45;26.80;;;;;;;;;;6225063;23;20162;-79
2021/03/03 05:23:57;;;;;;;40.40;30.25;;;;;;;;;;6225475;23;20312;-80
2021/03/03 05:26:23;;;;;;;41.03;25.70;;;;;;;;;;6250986;23;20146;-79
2021/03/03 05:28:49;;;;;;;39.03;27.10;;;;;;;;;;6252571;23;20184;-80
2021/03/03 05:31:15;;;;;;;43.90;28.48;;;;;;;;;;6252912;23;20209;-80
2021/03/03 05:33:44;;;;;;;50.75;30.02;;;;;;;;;;6225989;23;20229;-80
2021/03/03 05:36:10;;;;;;;41.50;27.48;;;;;;;;;;6252070;23;20172;-78
2021/03/03 05:38:37;;;;;;;35.78;29.45;;;;;;;;;;6225376;23;20180;-81
2021/03/03 05:41:04;;;;;;;38.00;28.27;;;;;;;;;;6252519;23;20146;-79
2021/03/03 05:43:31;;;;;;;41.28;28.10;;;;;;;;;;6260134;23;20249;-76
2021/03/03 05:45:58;;;;;;;32.65;25.50;;;;;;;;;;6242513;23;20146;-78
2021/03/03 05:48:24;;;;;;;44.97;30.00;;;;;;;;;;6265458;23;20157;-78
2021/03/03 05:50:53;;;;;;;42.65;28.80;;;;;;;;;;6234586;23;20216;-80
2021/03/03 05:53:19;;;;;;;37.55;29.13;;;;;;;;;;6252313;23;20193;-80
2021/03/03 05:55:46;;;;;;;41.40;30.13;;;;;;;;;;6228167;23;20153;-78
2021/03/03 05:58:12;;;;;;;45.90;30.20;;;;;;;;;;6230462;23;20177;-79
2021/03/03 06:00:39;;;;;;;37.60;30.27;;;;;;;;;;6246950;22;20149;-81
2021/03/03 06:03:05;;;;;;;36.40;28.17;;;;;;;;;;6247318;22;20185;-80
2021/03/03 06:05:32;;;;;;;46.38;31.27;;;;;;;;;;6272986;22;20134;-80
2021/03/03 06:07:58;;;;;;;41.05;31.27;;;;;;;;;;6234437;22;20154;-80
2021/03/03 06:10:24;;;;;;;36.63;29.02;;;;;;;;;;6252557;23;20146;-80
2021/03/03 06:12:53;;;;;;;35.72;26.73;;;;;;;;;;6249746;23;20176;-80
2021/03/03 06:15:19;;;;;;;36.88;29.90;;;;;;;;;;6249935;23;20157;-80
2021/03/03 06:17:45;;;;;;;37.25;29.00;;;;;;;;;;6250190;23;20162;-80
2021/03/03 06:20:12;;;;;;;33.20;27.35;;;;;;;;;;6250186;23;20150;-80
2021/03/03 06:22:39;;;;;;;31.52;26.10;;;;;;;;;;6225486;23;20311;-78
2021/03/03 06:25:22;;;;;;;37.63;27.90;;;;;;;;;;6250799;23;20142;-81
2021/03/03 06:27:49;;;;;;;36.30;27.08;;;;;;;;;;6226192;23;20146;-80
2021/03/03 06:30:16;;;;;;;31.58;26.17;;;;;;;;;;6250773;23;20656;-81
2021/03/03 06:33:01;;;;;;;33.15;24.60;;;;;;;;;;6253246;23;20170;-79
2021/03/03 06:35:38;;;;;;;30.65;26.17;;;;;;;;;;6251409;23;20150;-80
2021/03/03 06:38:06;;;;;;;38.53;28.00;;;;;;;;;;6252993;23;20176;-80
2021/03/03 06:40:32;;;;;;;36.55;28.63;;;;;;;;;;6252858;23;20134;-79
2021/03/03 06:43:16;;;;;;;29.67;24.50;;;;;;;;;;6226338;23;20173;-79
2021/03/03 06:45:42;;;;;;;48.55;37.65;;;;;;;;;;6251891;23;20146;-80
2021/03/03 06:48:09;;;;;;;40.63;30.90;;;;;;;;;;6253020;23;20215;-79
2021/03/03 06:50:40;;;;;;;35.50;29.05;;;;;;;;;;6253916;23;20150;-80
2021/03/03 06:53:07;;;;;;;33.65;28.05;;;;;;;;;;6251648;23;20181;-81
2021/03/03 06:55:43;;;;;;;38.47;29.83;;;;;;;;;;6226507;23;20178;-80
2021/03/03 06:58:25;;;;;;;41.53;32.65;;;;;;;;;;6252443;23;20202;-82
2021/03/03 07:00:51;;;;;;;39.58;35.42;;;;;;;;;;6252676;23;20150;-80
2021/03/03 07:03:25;;;;;;;38.13;31.70;;;;;;;;;;6253809;23;20567;-80
2021/03/03 07:05:51;;;;;;;47.47;38.13;;;;;;;;;;6253831;23;20157;-79
2021/03/03 07:08:18;;;;;;;38.08;29.80;;;;;;;;;;6253342;23;20543;-81
2021/03/03 07:10:44;;;;;;;71.68;47.38;;;;;;;;;;6227885;23;20146;-80
2021/03/03 07:13:10;;;;;;;38.33;26.45;;;;;;;;;;6253991;23;20170;-78
2021/03/03 07:15:37;;;;;;;38.55;27.77;;;;;;;;;;6254222;23;20164;-81
2021/03/03 07:18:03;;;;;;;34.70;27.33;;;;;;;;;;6235683;23;20178;-80
2021/03/03 07:20:29;;;;;;;36.85;30.10;;;;;;;;;;6265580;22;20150;-80
2021/03/03 07:22:57;;;;;;;38.42;28.70;;;;;;;;;;6240909;23;20169;-79
2021/03/03 07:25:25;;;;;;;39.55;32.45;;;;;;;;;;6241484;23;20148;-79
2021/03/03 07:27:52;;;;;;;44.28;34.22;;;;;;;;;;6266946;23;20207;-80
2021/03/03 07:30:41;;;;;;;;;;;;;;;;;;;;;
2021/03/03 07:38:43;;;;;;;;;;;;;;;;;;;;;
2021/03/03 07:41:23;;;;;;;45.35;31.90;;;;;;;;;;6273874;22;20190;-83
2021/03/03 07:44:19;;;;;;;;;;;;;;;;;;;;;
2021/03/03 07:47:25;;;;;;;;;;;;;;;;;;;;;
2021/03/03 07:58:04;;;;;;;;;;;;;;;;;;;;;
2021/03/03 08:05:05;;;;;;;;;;;;;;;;;;;;;
2021/03/03 08:08:26;;;;;;;;;;;;;;;;;;;;;
2021/03/03 08:16:10;;;;;;;37.55;27.85;;;;;;;;;;5926572;24;20185;-80
2021/03/03 08:18:52;;;;;;;;;;;;;;;;;;;;;
2021/03/03 08:21:59;;;;;;;;;;;;;;;;;;;;;
2021/03/03 08:32:42;;;;;;;42.65;33.88;;;;;;;;;;5909928;24;20173;-80
2021/03/03 08:42:42;;;;;;;38.83;30.58;;;;;;;;;;6015183;23;20214;-80
2021/03/03 08:45:23;;;;;;;;;;;;;;;;;;;;;
2021/03/03 08:54:47;;;;;;;37.40;30.38;;;;;;;;;;6072096;23;20390;-79
2021/03/03 09:00:55;;;;;;;45.87;34.90;;;;;;;;;;6051961;23;20161;-79
2021/03/03 09:03:29;;;;;;;45.88;34.45;;;;;;;;;;6047274;23;20405;-79
2021/03/03 09:06:57;;;;;;;;;;;;;;;;;;;;;
2021/03/03 09:10:21;;;;;;;;;;;;;;;;;;;;;
2021/03/03 10:06:39;;;;;;;34.77;30.93;;;;;;;;;;6237480;22;20443;-79
2021/03/03 10:09:05;;;;;;;36.90;29.57;;;;;;;;;;6258604;23;20373;-81
2021/03/03 10:11:35;;;;;;;38.03;29.77;;;;;;;;;;6256514;23;20728;-79
2021/03/03 10:14:05;;;;;;;33.33;29.37;;;;;;;;;;6228911;23;20384;-80
2021/03/03 10:16:32;;;;;;;32.63;28.00;;;;;;;;;;6263149;23;20434;-82
2021/03/03 10:19:07;;;;;;;39.70;31.60;;;;;;;;;;6257551;23;20420;-80
2021/03/03 10:21:37;;;;;;;41.50;32.23;;;;;;;;;;6258840;23;20680;-81
2021/03/03 10:24:14;;;;;;;43.87;30.30;;;;;;;;;;6256750;23;20387;-80
2021/03/03 10:26:45;;;;;;;33.97;27.90;;;;;;;;;;6254048;22;20389;-81
2021/03/03 10:29:12;;;;;;;33.53;28.60;;;;;;;;;;6227351;23;20356;-79
2021/03/03 10:31:39;;;;;;;36.97;28.23;;;;;;;;;;6252920;23;20360;-81
2021/03/03 10:34:10;;;;;;;39.83;29.23;;;;;;;;;;6254419;23;20695;-82
2021/03/03 10:36:42;;;;;;;34.43;26.40;;;;;;;;;;6253210;22;20408;-80
2021/03/03 10:39:10;;;;;;;32.77;29.03;;;;;;;;;;6225818;23;20408;-79
2021/03/03 10:41:37;;;;;;;37.60;29.83;;;;;;;;;;6225785;23;20386;-79
2021/03/03 10:44:04;;;;;;;30.87;27.30;;;;;;;;;;6253342;23;20398;-80
2021/03/03 10:46:31;;;;;;;33.90;27.70;;;;;;;;;;6226866;23;20407;-80
2021/03/03 10:49:10;;;;;;;36.87;30.33;;;;;;;;;;6202636;23;20382;-80
2021/03/03 10:51:38;;;;;;;31.30;28.00;;;;;;;;;;6256413;23;20416;-84
2021/03/03 10:54:05;;;;;;;45.97;30.17;;;;;;;;;;6228668;23;20370;-82
2021/03/03 10:56:31;;;;;;;34.10;27.27;;;;;;;;;;6256731;22;20419;-84
2021/03/03 10:59:03;;;;;;;37.67;29.43;;;;;;;;;;6229949;23;20400;-84
2021/03/03 11:02:01;;;;;;;35.80;26.93;;;;;;;;;;6205328;23;20437;-83
2021/03/03 11:04:41;;;;;;;40.40;28.83;;;;;;;;;;6208960;23;20383;-81
2021/03/03 11:07:08;;;;;;;36.30;28.93;;;;;;;;;;6244528;23;20420;-80
2021/03/03 11:09:35;;;;;;;42.90;31.43;;;;;;;;;;6254751;23;20388;-84
2021/03/03 11:12:01;;;;;;;34.83;29.80;;;;;;;;;;6252998;23;20392;-81
2021/03/03 11:14:28;;;;;;;37.10;29.33;;;;;;;;;;6253739;23;20471;-81
2021/03/03 11:16:56;;;;;;;32.17;28.87;;;;;;;;;;6253072;22;20388;-83
2021/03/03 11:19:24;;;;;;;34.60;30.27;;;;;;;;;;6226183;23;20414;-82
2021/03/03 11:21:51;;;;;;;37.40;28.90;;;;;;;;;;6225867;23;20389;-81
2021/03/03 11:24:18;;;;;;;33.23;27.07;;;;;;;;;;6251540;23;20395;-79
2021/03/03 11:26:47;;;;;;;34.60;28.80;;;;;;;;;;6252950;22;20402;-81
2021/03/03 11:29:14;;;;;;;35.90;29.67;;;;;;;;;;6255415;23;20421;-82
2021/03/03 11:31:41;;;;;;;43.67;30.07;;;;;;;;;;6254182;23;20435;-80
2021/03/03 11:34:08;;;;;;;34.27;29.80;;;;;;;;;;6256096;23;20430;-81
2021/03/03 11:36:34;;;;;;;38.90;29.73;;;;;;;;;;6227935;23;20932;-81
2021/03/03 11:39:01;;;;;;;36.53;32.00;;;;;;;;;;6231395;23;20420;-81
2021/03/03 11:41:27;;;;;;;35.83;28.10;;;;;;;;;;6255887;23;20485;-83
2021/03/03 11:43:54;;;;;;;33.57;27.80;;;;;;;;;;6256407;23;20388;-83
2021/03/03 11:46:22;;;;;;;37.57;29.67;;;;;;;;;;6254787;22;20389;-81
2021/03/03 11:48:51;;;;;;;35.70;26.80;;;;;;;;;;6228617;23;20404;-81
2021/03/03 11:51:20;;;;;;;34.67;25.60;;;;;;;;;;6253038;23;20396;-82
2021/03/03 11:53:46;;;;;;;42.07;29.67;;;;;;;;;;6254149;23;20467;-80
2021/03/03 11:56:13;;;;;;;34.37;28.13;;;;;;;;;;6254401;22;20759;-82
2021/03/03 11:58:40;;;;;;;36.60;28.77;;;;;;;;;;6257618;23;20423;-81
2021/03/03 12:01:06;;;;;;;34.93;29.47;;;;;;;;;;6228803;23;20381;-83
2021/03/03 12:03:32;;;;;;;31.63;27.27;;;;;;;;;;6254822;23;20381;-82
2021/03/03 12:05:59;;;;;;;39.20;29.43;;;;;;;;;;6255590;22;20373;-82
2021/03/03 12:08:36;;;;;;;33.00;26.93;;;;;;;;;;6236080;23;20381;-82
2021/03/03 12:11:08;;;;;;;30.47;27.30;;;;;;;;;;6207396;23;20365;-83
2021/03/03 12:13:35;;;;;;;28.30;25.17;;;;;;;;;;6236912;23;20458;-83
2021/03/03 12:16:02;;;;;;;27.40;24.47;;;;;;;;;;6231640;22;20421;-83
2021/03/03 12:18:28;;;;;;;32.00;27.00;;;;;;;;;;6229357;23;20472;-81
2021/03/03 12:20:54;;;;;;;31.83;25.53;;;;;;;;;;6256569;23;20376;-81
2021/03/03 12:23:21;;;;;;;29.30;24.40;;;;;;;;;;6255213;23;20885;-80
2021/03/03 12:26:07;;;;;;;;;;;;;;;;;;;;;
2021/03/03 12:28:38;;;;;;;27.10;22.90;;;;;;;;;;6255480;22;20380;-81
2021/03/03 12:31:09;;;;;;;26.30;21.97;;;;;;;;;;6227129;23;20379;-82
2021/03/03 12:33:39;;;;;;;30.73;24.03;;;;;;;;;;6255056;23;20368;-83
2021/03/03 12:36:06;;;;;;;31.63;22.57;;;;;;;;;;6202676;22;20400;-82
2021/03/03 12:38:32;;;;;;;26.00;21.90;;;;;;;;;;6235140;23;20413;-82
2021/03/03 12:40:59;;;;;;;33.27;22.70;;;;;;;;;;6203871;23;20389;-81
2021/03/03 12:43:25;;;;;;;26.90;21.10;;;;;;;;;;6254890;23;20369;-83
2021/03/03 12:45:52;;;;;;;25.63;21.80;;;;;;;;;;6253049;22;20903;-83
2021/03/03 12:48:19;;;;;;;27.67;21.43;;;;;;;;;;6227842;23;20369;-83
2021/03/03 12:50:48;;;;;;;25.40;21.23;;;;;;;;;;6228471;23;20405;-82
2021/03/03 12:53:15;;;;;;;29.60;21.73;;;;;;;;;;6254596;23;20429;-82
2021/03/03 12:55:45;;;;;;;26.03;22.87;;;;;;;;;;6229915;23;20377;-81
2021/03/03 12:58:11;;;;;;;28.63;23.00;;;;;;;;;;6231122;23;20416;-82
2021/03/03 13:00:38;;;;;;;28.27;22.43;;;;;;;;;;6258659;23;20372;-84
2021/03/03 13:03:04;;;;;;;26.87;20.17;;;;;;;;;;6204373;23;20380;-83
2021/03/03 13:05:31;;;;;;;27.03;21.83;;;;;;;;;;6230664;23;20377;-83
2021/03/03 13:07:58;;;;;;;39.53;23.27;;;;;;;;;;6261191;22;20782;-82
2021/03/03 13:10:25;;;;;;;31.57;21.97;;;;;;;;;;6210932;23;20400;-80
2021/03/03 13:12:51;;;;;;;34.93;24.90;;;;;;;;;;6258757;23;20361;-82
2021/03/03 13:15:18;;;;;;;33.43;22.40;;;;;;;;;;6205891;23;20380;-81
2021/03/03 13:17:47;;;;;;;26.07;22.60;;;;;;;;;;6257535;22;20388;-81
2021/03/03 13:20:13;;;;;;;25.57;22.87;;;;;;;;;;6255752;23;20443;-82
2021/03/03 13:22:42;;;;;;;33.93;24.03;;;;;;;;;;6253564;23;20361;-81
2021/03/03 13:25:09;;;;;;;30.20;22.63;;;;;;;;;;6252521;23;20369;-80
2021/03/03 13:27:37;;;;;;;34.10;23.27;;;;;;;;;;6226596;23;20448;-81
2021/03/03 13:30:05;;;;;;;35.50;23.07;;;;;;;;;;6201714;23;20372;-81
2021/03/03 13:32:31;;;;;;;33.20;24.90;;;;;;;;;;6229568;23;20689;-82
2021/03/03 13:34:57;;;;;;;32.40;24.57;;;;;;;;;;6258000;23;20430;-81
2021/03/03 13:37:24;;;;;;;59.13;28.70;;;;;;;;;;6231182;23;20407;-83
2021/03/03 13:39:50;;;;;;;42.13;25.00;;;;;;;;;;6208389;23;20500;-83
2021/03/03 13:42:16;;;;;;;47.13;25.70;;;;;;;;;;6231009;23;20481;-82
2021/03/03 13:44:43;;;;;;;50.40;25.60;;;;;;;;;;6260159;23;20380;-82
2021/03/03 13:47:09;;;;;;;51.70;24.93;;;;;;;;;;6230474;23;20434;-83
2021/03/03 13:49:37;;;;;;;81.73;37.73;;;;;;;;;;6226831;23;20385;-81
2021/03/03 13:52:04;;;;;;;36.87;23.20;;;;;;;;;;6225270;23;20651;-81
2021/03/03 13:54:31;;;;;;;60.17;29.80;;;;;;;;;;6203161;23;20384;-83
2021/03/03 13:56:57;;;;;;;62.67;30.73;;;;;;;;;;6253988;22;20399;-83
2021/03/03 13:59:25;;;;;;;36.37;22.07;;;;;;;;;;6228204;23;20428;-84
2021/03/03 14:01:52;;;;;;;35.73;28.53;;;;;;;;;;6229268;23;20704;-79
2021/03/03 14:04:26;;;;;;;39.00;24.40;;;;;;;;;;6240750;23;20369;-82
2021/03/03 14:07:03;;;;;;;28.30;23.13;;;;;;;;;;6254455;22;20400;-82
2021/03/03 14:09:35;;;;;;;27.10;20.83;;;;;;;;;;6226720;23;20399;-83
2021/03/03 14:12:02;;;;;;;27.03;21.03;;;;;;;;;;6254708;23;20376;-82
2021/03/03 14:14:28;;;;;;;24.93;22.07;;;;;;;;;;6254894;23;20420;-82
2021/03/03 14:16:54;;;;;;;24.43;21.87;;;;;;;;;;6252922;22;20936;-84
2021/03/03 14:19:21;;;;;;;22.17;18.70;;;;;;;;;;6254273;23;20433;-82
2021/03/03 14:21:47;;;;;;;29.10;20.00;;;;;;;;;;6230916;23;20365;-82
2021/03/03 14:24:17;;;;;;;22.30;19.90;;;;;;;;;;6228606;23;20387;-82
2021/03/03 14:26:43;;;;;;;24.93;21.67;;;;;;;;;;6231712;23;20397;-85
2021/03/03 14:29:10;;;;;;;20.73;18.50;;;;;;;;;;6231983;23;20380;-85
2021/03/03 14:31:36;;;;;;;30.97;20.70;;;;;;;;;;6230448;23;20377;-84
2021/03/03 14:34:02;;;;;;;25.63;22.80;;;;;;;;;;6255341;23;20393;-83
2021/03/03 14:36:29;;;;;;;29.10;22.27;;;;;;;;;;6228101;23;20449;-84
2021/03/03 14:38:58;;;;;;;26.63;21.40;;;;;;;;;;6203006;23;20474;-85
2021/03/03 14:41:25;;;;;;;27.97;20.07;;;;;;;;;;6254517;23;20447;-84
2021/03/03 14:43:51;;;;;;;25.47;21.67;;;;;;;;;;6253898;23;20398;-84
2021/03/03 14:46:22;;;;;;;24.77;22.10;;;;;;;;;;6226841;23;20413;-85
2021/03/03 14:48:49;;;;;;;27.80;20.97;;;;;;;;;;6226758;23;20371;-85
2021/03/03 14:51:15;;;;;;;27.80;21.67;;;;;;;;;;6254853;23;20376;-84
2021/03/03 14:53:49;;;;;;;26.87;20.87;;;;;;;;;;6255525;23;20502;-84
2021/03/03 14:56:15;;;;;;;27.73;20.80;;;;;;;;;;6205339;23;20450;-84
2021/03/03 14:58:52;;;;;;;;;;;;;;;;;;;;;
2021/03/03 15:01:19;;;;;;;25.97;20.97;;;;;;;;;;6232623;23;20409;-85
2021/03/03 15:03:45;;;;;;;27.30;20.73;;;;;;;;;;6230396;23;20381;-85
2021/03/03 15:06:12;;;;;;;35.33;20.83;;;;;;;;;;6204964;23;20404;-83
2021/03/03 15:08:38;;;;;;;29.00;19.90;;;;;;;;;;6253989;23;20384;-85
2021/03/03 15:11:05;;;;;;;27.23;19.33;;;;;;;;;;6227821;23;20435;-82
2021/03/03 15:13:31;;;;;;;24.50;18.87;;;;;;;;;;6253571;23;20406;-81
2021/03/03 15:15:58;;;;;;;21.43;19.20;;;;;;;;;;6254704;22;20366;-83
2021/03/03 15:18:26;;;;;;;19.67;16.10;;;;;;;;;;6254377;23;20809;-85
2021/03/03 15:20:55;;;;;;;24.03;17.80;;;;;;;;;;6255953;22;20923;-85
2021/03/03 15:23:32;;;;;;;20.10;16.27;;;;;;;;;;6253885;22;20389;-83
2021/03/03 15:26:01;;;;;;;22.07;15.90;;;;;;;;;;6253829;22;20362;-84
2021/03/03 15:28:49;;;;;;;18.00;15.47;;;;;;;;;;6252627;23;20396;-89
2021/03/03 15:31:15;;;;;;;22.00;15.10;;;;;;;;;;6255299;23;20361;-84
2021/03/03 15:33:44;;;;;;;30.10;17.03;;;;;;;;;;6254598;23;20411;-87
2021/03/03 15:36:11;;;;;;;21.97;15.47;;;;;;;;;;6255591;22;20385;-84
2021/03/03 15:38:38;;;;;;;16.50;14.80;;;;;;;;;;6254913;22;20432;-84
2021/03/03 15:41:04;;;;;;;19.70;17.47;;;;;;;;;;6254792;23;20373;-86
2021/03/03 15:43:31;;;;;;;35.27;21.87;;;;;;;;;;6259011;22;20372;-84
2021/03/03 15:45:57;;;;;;;25.93;18.47;;;;;;;;;;6259642;22;20373;-84
2021/03/03 15:48:27;;;;;;;21.47;15.87;;;;;;;;;;6230608;23;20373;-84
2021/03/03 15:50:53;;;;;;;22.87;17.83;;;;;;;;;;6257074;23;20444;-85
2021/03/03 15:53:20;;;;;;;22.90;15.90;;;;;;;;;;6232518;23;20383;-84
2021/03/03 15:55:47;;;;;;;17.77;15.90;;;;;;;;;;6258344;22;20381;-85
2021/03/03 15:58:16;;;;;;;19.20;15.20;;;;;;;;;;6232867;23;20483;-85
2021/03/03 16:00:53;;;;;;;21.63;16.03;;;;;;;;;;6233164;23;20383;-84
2021/03/03 16:03:20;;;;;;;18.70;15.10;;;;;;;;;;6234446;23;20433;-85
2021/03/03 16:05:49;;;;;;;51.33;32.33;;;;;;;;;;6260121;22;20377;-88
2021/03/03 17:02:09;;;;;;;15.60;13.40;;;;;;;;;;6262820;23;20412;-85
2021/03/03 17:04:39;;;;;;;18.07;13.63;;;;;;;;;;6238373;23;20924;-86
2021/03/03 17:07:18;;;;;;;16.90;13.70;;;;;;;;;;6263329;23;20665;-85
2021/03/03 17:09:47;;;;;;;17.47;14.47;;;;;;;;;;6235366;23;20469;-85
2021/03/03 17:12:14;;;;;;;17.17;14.50;;;;;;;;;;6208651;23;20950;-85
2021/03/03 17:14:47;;;;;;;20.20;16.50;;;;;;;;;;6207598;23;20426;-84
2021/03/03 17:17:26;;;;;;;17.97;16.07;;;;;;;;;;6257456;23;20715;-84
2021/03/03 17:20:02;;;;;;;18.60;14.13;;;;;;;;;;6231149;23;20412;-84
2021/03/03 17:22:31;;;;;;;17.80;14.43;;;;;;;;;;6206160;23;20429;-85
2021/03/03 17:25:02;;;;;;;23.27;15.07;;;;;;;;;;6230168;23;20377;-85
2021/03/03 17:27:29;;;;;;;26.57;16.83;;;;;;;;;;6206073;23;20372;-84
2021/03/03 17:30:06;;;;;;;18.93;16.00;;;;;;;;;;6233072;23;20409;-83
2021/03/03 17:32:51;;;;;;;20.20;16.40;;;;;;;;;;6235924;23;20350;-84
2021/03/03 17:35:21;;;;;;;18.13;14.90;;;;;;;;;;6232748;23;20385;-84
2021/03/03 17:38:07;;;;;;;25.37;17.07;;;;;;;;;;6259128;23;20429;-84
2021/03/03 17:40:34;;;;;;;22.50;15.43;;;;;;;;;;6229650;23;20431;-85
2021/03/03 17:43:01;;;;;;;22.47;16.93;;;;;;;;;;6229245;23;20446;-83
2021/03/03 17:45:27;;;;;;;22.50;16.40;;;;;;;;;;6228543;23;20372;-82
2021/03/03 17:48:07;;;;;;;;;;;;;;;;;;;;;
2021/03/03 17:50:39;;;;;;;22.90;17.30;;;;;;;;;;6229326;23;20455;-82
2021/03/03 17:53:08;;;;;;;18.47;16.57;;;;;;;;;;6205057;23;20383;-83